Terminal Aerodrome Forecast
Issued by NWS

Current Version | Previous Version | Text Only | Print | Product List | Glossary On
Versions: 1 2 3 4 5 6 7 8 9 10 11 12 13 14
000
FTUS42 TJSJ 271120
TAFNCM
TAF
TNCM 271120Z 2712/2812 08008KT P6SM SCT018 SCT060
     FM271300 10011KT P6SM FEW020
     FM272300 08008KT P6SM SCT018=

USA.gov is the U.S. government's official web portal to all federal, state and local government web resources and services.